Monday, October 23, 2017, 1:23 PM EDT
Back to Local

KMPO, Mt Pocono Pocono Mountains

Location: Pocono Summit, PA, United States Lat: 41.133
Local Time: 1:23 PM EDT (17:23 GMT) Lon: -75.383
Time Zone: US/Eastern Elev: 1915 ft

Show me the last for .
Show Coded

Time T Td Feel RH Dir Speed Gust Alt SLP Vis Weather Sky Remarks
2017-10-23 13:09 60 59 - 96 150° 10 - 30.21 - 10 OVC005 None
2017-10-23 12:53 58 58 - 100 160° 10 - 30.22 30.23 10 OVC004 None
2017-10-23 12:07 58 58 - 100 170° 9 - 30.24 - 6 BR OVC001 None
2017-10-23 11:53 58 58 - 100 180° 10 - 30.24 30.25 2 BR OVC002 None
2017-10-23 11:46 58 58 - 100 170° 10 20 30.24 - 2 BR OVC002 None
2017-10-23 11:38 58 58 - 100 170° 14 20 30.24 - 1 BR OVC002 None
2017-10-23 11:30 58 58 - 100 160° 10 - 30.24 - 0 BR VV002 None
2017-10-23 10:53 57 57 - 100 170° 8 - 30.26 30.26 0 FG VV001 None
2017-10-23 09:53 57 57 - 100 160° 9 - 30.27 30.27 0 FG VV001 None
2017-10-23 08:53 56 56 - 100 140° 8 - 30.29 30.29 0 FG VV001 None
2017-10-23 07:53 56 56 - 100 170° 8 - 30.29 30.29 0 FG VV001 6-hr Min Temp (8am): 54.0°F
6-hr Max Temp (8am): 55.9°F
2017-10-23 07:28 55 55 - 100 170° 8 - 30.29 - 0 FG VV002 None
2017-10-23 07:13 55 55 - 100 190° 7 - 30.30 - 1 BR OVC002 None
2017-10-23 06:59 55 55 - 100 190° 8 - 30.29 - 3 BR OVC002 None
2017-10-23 06:53 55 55 - 100 180° 8 - 30.29 30.29 1 BR OVC002 None
2017-10-23 06:32 55 55 - 100 170° 9 - 30.30 - 1 BR OVC002 Variable visibility
2017-10-23 05:53 55 55 - 100 180° 9 - 30.30 30.30 10 OVC004 None
2017-10-23 05:30 55 55 - 100 180° 9 - 30.31 - 10 BKN004 OVC008 None
2017-10-23 04:53 55 54 - 96 190° 9 - 30.31 30.31 10 BKN009 OVC014 None
2017-10-23 03:53 55 54 - 96 180° 8 - 30.32 30.31 10 FEW008 BKN014 None
2017-10-23 03:38 54 54 - 100 180° 9 - 30.32 - 10 SCT009 BKN014 None
2017-10-23 02:53 55 54 - 96 170° 10 - 30.32 30.31 10 OVC009 None
2017-10-23 02:27 54 53 - 96 170° 7 - 30.33 - 10 OVC007 None
2017-10-23 01:53 53 53 - 100 170° 10 - 30.33 30.32 10 OVC006 6-hr Min Temp (2am): 46.9°F
6-hr Max Temp (2am): 59.0°F
2017-10-23 01:46 53 53 - 100 160° 12 - 30.33 - 10 OVC004 None
2017-10-23 01:36 53 52 - 96 150° 10 - 30.34 - 10 BKN006 None
2017-10-23 01:26 51 48 - 89 150° 9 - 30.34 - 10 SCT006 None
2017-10-23 00:53 52 44 - 74 120° 6 - 30.35 30.35 10 CLR 24-hr Min Temp (1am): 39.0°F
24-hr Max Temp (1am): 70.0°F
2017-10-22 23:53 52 43 - 71 150° 5 - 30.37 30.36 10 CLR None
2017-10-22 22:53 55 45 - 68 160° 5 - 30.37 30.37 10 CLR None
2017-10-22 21:53 56 45 - 66 160° 7 - 30.38 30.37 10 CLR None
2017-10-22 20:53 57 44 - 61 150° 7 - 30.37 30.37 10 CLR None
2017-10-22 19:53 58 43 - 57 160° 8 - 30.36 30.37 10 CLR 6-hr Min Temp (8pm): 57.9°F
6-hr Max Temp (8pm): 70.0°F
2017-10-22 18:53 59 42 - 53 150° 7 - 30.36 30.38 10 CLR None
2017-10-22 17:53 62 41 - 45 160° 6 - 30.36 30.37 10 CLR None
2017-10-22 16:53 67 43 - 41 140° 12 - 30.36 30.37 10 CLR None
2017-10-22 15:53 66 43 - 43 170° 7 17 30.37 30.37 10 CLR None
2017-10-22 14:53 68 41 - 37 210° 9 - 30.37 30.37 10 CLR None
2017-10-22 13:53 68 42 - 38 Variable 6 - 30.38 30.39 10 CLR 6-hr Min Temp (2pm): 43.0°F
6-hr Max Temp (2pm): 69.1°F

Support USWX by starting your Amazon purchase here.